createdAt,value
2019-04-20T00:00:09.084Z,4.30
2019-04-20T00:02:37.958Z,4.22
2019-04-20T00:05:09.389Z,4.15
2019-04-20T00:07:40.098Z,4.07
2019-04-20T00:10:15.553Z,3.95
2019-04-20T00:13:01.095Z,3.76
2019-04-20T00:15:15.738Z,3.81
2019-04-20T00:17:54.252Z,3.79
2019-04-20T00:20:24.171Z,3.91
2019-04-20T00:22:59.791Z,3.97
2019-04-20T00:26:04.477Z,3.91
2019-04-20T00:28:45.995Z,3.63
2019-04-20T00:31:17.807Z,3.47
2019-04-20T00:33:42.760Z,3.51
2019-04-20T00:36:05.393Z,3.35
2019-04-20T00:38:45.539Z,3.24
2019-04-20T00:41:12.526Z,3.18
2019-04-20T00:43:42.537Z,3.19
2019-04-20T00:46:23.117Z,3.34
2019-04-20T00:48:54.011Z,3.34
2019-04-20T00:51:35.147Z,3.48
2019-04-20T00:53:55.246Z,3.44
2019-04-20T00:56:24.486Z,3.32
2019-04-20T00:59:08.329Z,3.40
2019-04-20T01:01:47.656Z,3.32
2019-04-20T01:04:20.485Z,3.39
2019-04-20T01:07:06.221Z,3.20
2019-04-20T01:09:43.386Z,3.11
2019-04-20T01:12:22.471Z,3.13
2019-04-20T01:14:55.131Z,3.21
2019-04-20T01:17:20.303Z,3.04
2019-04-20T01:19:54.140Z,2.88
2019-04-20T01:22:27.323Z,2.98
2019-04-20T01:25:09.751Z,3.05
2019-04-20T01:27:51.576Z,3.27
2019-04-20T01:30:17.432Z,3.27
2019-04-20T01:32:55.133Z,3.31
2019-04-20T01:35:31.826Z,3.21
2019-04-20T01:38:07.318Z,3.08
2019-04-20T01:40:19.089Z,3.02
2019-04-20T01:42:51.063Z,3.21
2019-04-20T01:45:27.937Z,3.23
2019-04-20T01:47:57.789Z,3.23
2019-04-20T01:50:30.055Z,3.13
2019-04-20T01:53:11.536Z,3.37
2019-04-20T01:55:53.113Z,3.34
2019-04-20T01:58:52.130Z,3.26
2019-04-20T02:00:55.851Z,3.18
2019-04-20T02:03:38.597Z,3.04
2019-04-20T02:06:16.734Z,2.93
2019-04-20T02:08:46.195Z,2.88
2019-04-20T02:11:24.148Z,2.91
2019-04-20T02:13:56.660Z,2.76
2019-04-20T02:16:31.784Z,2.90
2019-04-20T02:19:15.533Z,2.81
2019-04-20T02:21:55.687Z,2.84
2019-04-20T02:24:13.144Z,2.94
2019-04-20T02:26:45.096Z,3.00
2019-04-20T02:29:39.840Z,2.79
2019-04-20T02:32:23.326Z,2.86
2019-04-20T02:35:07.231Z,2.83
2019-04-20T02:40:45.199Z,3.07
2019-04-20T02:45:40.428Z,2.77
2019-04-20T02:48:13.411Z,2.79
2019-04-20T02:50:59.530Z,2.72
2019-04-20T02:53:30.292Z,2.74
2019-04-20T02:55:58.565Z,2.78
2019-04-20T02:58:23.574Z,2.80
2019-04-20T03:00:57.150Z,2.78
2019-04-20T03:03:14.336Z,2.75
2019-04-20T03:05:45.445Z,2.88
2019-04-20T03:08:22.262Z,2.88
2019-04-20T03:11:11.710Z,2.95
2019-04-20T03:13:36.695Z,2.97
2019-04-20T03:16:08.695Z,3.01
2019-04-20T03:18:39.849Z,3.15
2019-04-20T03:21:21.068Z,3.26
2019-04-20T03:23:50.015Z,3.38
2019-04-20T03:26:21.406Z,3.36
2019-04-20T03:29:02.576Z,3.47
2019-04-20T03:32:28.874Z,3.60
2019-04-20T03:35:00.547Z,4.08
2019-04-20T03:37:17.192Z,4.41
2019-04-20T03:39:40.528Z,4.31
2019-04-20T03:41:58.712Z,4.24
2019-04-20T03:44:32.919Z,4.48
2019-04-20T03:47:08.038Z,4.45
2019-04-20T03:50:01.002Z,4.32
2019-04-20T03:52:32.845Z,4.35
2019-04-20T03:55:07.278Z,4.39
2019-04-20T03:57:49.812Z,4.42
2019-04-20T04:00:26.448Z,5.01
2019-04-20T04:03:16.573Z,6.58
2019-04-20T04:05:37.034Z,8.35
2019-04-20T04:08:03.167Z,9.27
2019-04-20T04:10:34.039Z,10.00
2019-04-20T04:13:14.939Z,10.73
2019-04-20T04:15:55.597Z,10.82
2019-04-20T04:18:29.742Z,11.18
2019-04-20T04:21:01.963Z,10.90
2019-04-20T04:23:44.524Z,10.78
2019-04-20T04:26:17.490Z,11.15
2019-04-20T04:28:53.835Z,11.59
2019-04-20T04:31:35.039Z,10.66
2019-04-20T04:34:17.689Z,11.39
2019-04-20T04:36:40.593Z,11.46
2019-04-20T04:39:15.476Z,12.23
2019-04-20T04:41:58.213Z,12.89
2019-04-20T04:44:18.012Z,13.14
2019-04-20T04:46:44.600Z,13.83
2019-04-20T04:49:16.506Z,13.10
2019-04-20T04:51:53.520Z,13.47
2019-04-20T04:54:28.817Z,13.49
2019-04-20T04:56:54.608Z,13.64
2019-04-20T04:59:29.672Z,13.32
2019-04-20T05:02:03.293Z,13.18
2019-04-20T05:04:58.425Z,14.10
2019-04-20T05:07:24.453Z,13.82
2019-04-20T05:09:44.385Z,12.99
2019-04-20T05:12:20.338Z,13.32
2019-04-20T05:14:58.078Z,13.12
2019-04-20T05:17:39.421Z,14.68
2019-04-20T05:20:13.387Z,13.88
2019-04-20T05:22:51.001Z,13.11
2019-04-20T05:25:36.656Z,13.51
2019-04-20T05:28:20.797Z,14.63
2019-04-20T05:30:52.548Z,13.89
2019-04-20T05:33:31.493Z,14.56
2019-04-20T05:36:15.745Z,13.18
2019-04-20T05:38:46.999Z,13.40
2019-04-20T05:41:20.091Z,13.28
2019-04-20T05:43:53.410Z,12.48
2019-04-20T05:46:35.343Z,12.61
2019-04-20T05:49:13.474Z,12.22
2019-04-20T05:51:39.682Z,12.07
2019-04-20T05:54:13.579Z,12.72
2019-04-20T05:56:51.274Z,12.87
2019-04-20T05:59:23.851Z,12.19
2019-04-20T06:01:58.887Z,11.32
2019-04-20T06:04:41.313Z,10.28
2019-04-20T06:07:08.287Z,10.79
2019-04-20T06:09:40.945Z,11.46
2019-04-20T06:12:31.809Z,12.11
2019-04-20T06:17:52.717Z,11.97
2019-04-20T06:20:33.952Z,11.24
2019-04-20T06:23:15.936Z,11.25
2019-04-20T06:25:52.975Z,11.01
2019-04-20T06:28:12.825Z,11.30
2019-04-20T06:30:50.846Z,10.60
2019-04-20T06:36:38.600Z,9.65
2019-04-20T06:39:17.204Z,9.78
2019-04-20T06:42:05.015Z,9.70
2019-04-20T06:44:24.678Z,9.79
2019-04-20T06:46:59.129Z,9.93
2019-04-20T06:52:00.414Z,9.79
2019-04-20T06:54:39.464Z,9.84
2019-04-20T06:57:22.552Z,10.00
2019-04-20T06:59:47.667Z,10.01
2019-04-20T07:02:22.231Z,9.94
2019-04-20T07:07:26.614Z,9.85
2019-04-20T07:12:27.324Z,10.17
2019-04-20T07:14:55.277Z,10.07
2019-04-20T07:17:49.103Z,10.17
2019-04-20T07:20:15.491Z,10.03
2019-04-20T07:23:14.517Z,9.94
2019-04-20T07:25:38.769Z,10.04
2019-04-20T07:28:05.881Z,9.85
2019-04-20T07:30:41.846Z,9.96
2019-04-20T07:33:20.023Z,10.14
2019-04-20T07:35:49.218Z,10.05
2019-04-20T07:40:50.377Z,10.24
2019-04-20T07:43:25.577Z,10.58
2019-04-20T07:45:55.751Z,10.32
2019-04-20T07:48:26.431Z,10.62
2019-04-20T07:50:55.533Z,10.75
2019-04-20T07:53:29.399Z,10.38
2019-04-20T07:56:12.597Z,10.37
2019-04-20T07:59:31.480Z,10.60
2019-04-20T08:02:19.180Z,10.43
2019-04-20T08:04:55.080Z,10.67
2019-04-20T08:07:17.521Z,10.41
2019-04-20T08:09:57.421Z,10.52
2019-04-20T08:12:58.381Z,10.58
2019-04-20T08:15:34.045Z,10.58
2019-04-20T08:17:56.394Z,10.70
2019-04-20T08:20:29.926Z,10.85
2019-04-20T08:23:00.120Z,10.91
2019-04-20T08:25:23.773Z,11.07
2019-04-20T08:28:06.479Z,10.99
2019-04-20T08:31:00.912Z,10.86
2019-04-20T08:33:45.178Z,11.22
2019-04-20T08:36:18.156Z,11.00
2019-04-20T08:39:12.717Z,10.99
2019-04-20T08:41:48.622Z,10.94
2019-04-20T08:44:42.723Z,10.90
2019-04-20T08:47:05.164Z,10.98
2019-04-20T08:49:29.666Z,11.26
2019-04-20T08:54:26.409Z,11.05
2019-04-20T08:56:51.721Z,11.20
2019-04-20T08:59:19.197Z,10.84
2019-04-20T09:01:51.077Z,10.79
2019-04-20T09:04:36.045Z,11.01
2019-04-20T09:07:05.596Z,11.37
2019-04-20T09:09:52.549Z,11.32
2019-04-20T09:12:26.757Z,11.15
2019-04-20T09:14:44.532Z,11.27
2019-04-20T09:17:27.264Z,11.59
2019-04-20T09:20:01.486Z,11.65
2019-04-20T09:22:49.457Z,11.63
2019-04-20T09:25:57.718Z,11.51
2019-04-20T09:28:11.772Z,11.46
2019-04-20T09:30:51.950Z,11.65
2019-04-20T09:33:47.037Z,11.52
2019-04-20T09:36:17.875Z,11.52
2019-04-20T09:39:08.573Z,11.46
2019-04-20T09:41:58.114Z,11.44
2019-04-20T09:44:04.641Z,11.36
2019-04-20T09:46:44.183Z,11.17
2019-04-20T09:49:20.136Z,11.25
2019-04-20T09:52:00.187Z,11.25
2019-04-20T09:54:35.862Z,11.41
2019-04-20T09:57:09.163Z,11.59
2019-04-20T09:59:52.868Z,11.83
2019-04-20T10:02:13.715Z,11.42
2019-04-20T10:04:39.925Z,11.34
2019-04-20T10:07:14.510Z,11.55
2019-04-20T10:09:46.912Z,11.53
2019-04-20T10:12:15.734Z,11.42
2019-04-20T10:14:46.849Z,11.57
2019-04-20T10:17:18.118Z,11.74
2019-04-20T10:19:51.380Z,11.90
2019-04-20T10:22:29.017Z,11.56
2019-04-20T10:25:02.644Z,11.64
2019-04-20T10:27:41.923Z,11.57
2019-04-20T10:30:14.603Z,11.56
2019-04-20T10:32:50.912Z,11.56
2019-04-20T10:35:23.876Z,11.82
2019-04-20T10:38:03.346Z,11.66
2019-04-20T10:40:48.683Z,11.57
2019-04-20T10:43:10.221Z,11.67
2019-04-20T10:45:41.423Z,11.85
2019-04-20T10:48:13.145Z,11.62
2019-04-20T10:50:47.204Z,11.61
2019-04-20T10:53:19.696Z,11.78
2019-04-20T10:55:55.704Z,11.97
2019-04-20T10:58:27.563Z,11.92
2019-04-20T11:01:05.783Z,12.10
2019-04-20T11:03:44.831Z,11.89
2019-04-20T11:06:34.443Z,11.97
2019-04-20T11:09:11.873Z,11.84
2019-04-20T11:11:48.462Z,11.80
2019-04-20T11:14:26.373Z,12.06
2019-04-20T11:16:54.141Z,12.24
2019-04-20T11:19:25.366Z,12.07
2019-04-20T11:22:00.377Z,12.19
2019-04-20T11:24:38.990Z,12.05
2019-04-20T11:27:12.486Z,12.11
2019-04-20T11:29:44.487Z,12.06
2019-04-20T11:32:17.908Z,12.08
2019-04-20T11:34:51.234Z,12.37
2019-04-20T11:37:22.148Z,12.28
2019-04-20T11:39:55.235Z,12.17
2019-04-20T11:42:25.945Z,12.32
2019-04-20T11:44:58.722Z,12.41
2019-04-20T11:47:29.676Z,12.45
2019-04-20T11:50:01.823Z,12.42
2019-04-20T11:52:39.909Z,12.29
2019-04-20T11:55:10.517Z,12.28
2019-04-20T11:57:43.027Z,12.35
2019-04-20T12:00:29.888Z,11.95
2019-04-20T12:03:24.795Z,11.96
2019-04-20T12:05:53.812Z,12.25
2019-04-20T12:08:23.375Z,12.45
2019-04-20T12:10:59.513Z,12.72
2019-04-20T12:13:31.030Z,12.54
2019-04-20T12:16:05.581Z,12.40
2019-04-20T12:18:38.256Z,12.53
2019-04-20T12:21:14.791Z,12.59
2019-04-20T12:23:46.406Z,12.66
2019-04-20T12:26:18.805Z,12.55
2019-04-20T12:28:52.212Z,12.59
2019-04-20T12:31:27.636Z,12.60
2019-04-20T12:33:58.649Z,12.67
2019-04-20T12:36:30.234Z,12.79
2019-04-20T12:39:04.075Z,12.71
2019-04-20T12:41:45.339Z,12.70
2019-04-20T12:44:12.231Z,12.83
2019-04-20T12:46:47.814Z,12.88
2019-04-20T12:49:23.479Z,12.69
2019-04-20T12:52:00.237Z,12.63
2019-04-20T12:54:29.270Z,12.69
2019-04-20T12:57:00.505Z,12.49
2019-04-20T12:59:42.255Z,12.49
2019-04-20T13:02:13.847Z,12.42
2019-04-20T13:04:45.781Z,12.51
2019-04-20T13:07:17.660Z,12.62
2019-04-20T13:09:54.802Z,12.66
2019-04-20T13:12:34.258Z,12.79
2019-04-20T13:15:26.591Z,12.88
2019-04-20T13:18:01.395Z,12.96
2019-04-20T13:20:37.108Z,12.75
2019-04-20T13:23:17.219Z,12.70
2019-04-20T13:25:48.861Z,12.59
2019-04-20T13:28:23.170Z,12.58
2019-04-20T13:30:57.844Z,12.66
2019-04-20T13:33:29.544Z,12.80
2019-04-20T13:36:04.062Z,12.77
2019-04-20T13:38:38.189Z,12.72
2019-04-20T13:41:09.396Z,12.67
2019-04-20T13:43:41.612Z,12.72
2019-04-20T13:46:25.034Z,12.82
2019-04-20T13:48:58.853Z,12.84
2019-04-20T13:51:32.881Z,12.86
2019-04-20T13:54:14.985Z,12.75
2019-04-20T13:56:48.026Z,12.74
2019-04-20T13:59:32.539Z,12.58
2019-04-20T14:02:10.877Z,12.54
2019-04-20T14:04:48.722Z,12.61
2019-04-20T14:07:20.280Z,12.64
2019-04-20T14:09:53.477Z,12.67
2019-04-20T14:12:35.397Z,12.67
2019-04-20T14:15:02.829Z,12.66
2019-04-20T14:17:37.218Z,12.62
2019-04-20T14:20:15.779Z,12.61
2019-04-20T14:22:47.259Z,12.70
2019-04-20T14:25:22.887Z,12.62
2019-04-20T14:28:05.204Z,12.73
2019-04-20T14:30:37.243Z,12.65
2019-04-20T14:33:12.898Z,12.66
2019-04-20T14:35:48.322Z,12.66
2019-04-20T14:38:22.286Z,12.52
2019-04-20T14:41:00.110Z,12.55
2019-04-20T14:43:38.105Z,12.58
2019-04-20T14:46:10.918Z,12.45
2019-04-20T14:48:46.879Z,12.28
2019-04-20T14:51:27.831Z,12.34
2019-04-20T14:54:05.933Z,12.41
2019-04-20T14:56:47.620Z,12.49
2019-04-20T14:59:27.476Z,12.40
2019-04-20T15:02:02.822Z,12.42
2019-04-20T15:04:34.711Z,12.43
2019-04-20T15:07:06.695Z,12.41
2019-04-20T15:09:42.549Z,12.30
2019-04-20T15:12:15.004Z,12.28
2019-04-20T15:14:50.397Z,12.28
2019-04-20T15:17:23.561Z,12.27
2019-04-20T15:19:59.240Z,12.34
2019-04-20T15:22:31.825Z,12.36
2019-04-20T15:25:03.845Z,12.29
2019-04-20T15:27:46.004Z,12.24
2019-04-20T15:30:18.315Z,12.17
2019-04-20T15:32:49.344Z,12.13
2019-04-20T15:35:21.494Z,12.15
2019-04-20T15:37:53.251Z,12.27
2019-04-20T15:40:24.058Z,12.12
2019-04-20T15:43:09.545Z,12.02
2019-04-20T15:45:31.975Z,12.12
2019-04-20T15:48:06.017Z,12.06
2019-04-20T15:50:38.070Z,11.99
2019-04-20T15:53:09.413Z,11.96
2019-04-20T15:55:42.013Z,11.89
2019-04-20T15:58:16.407Z,11.86
2019-04-20T16:00:47.214Z,11.71
2019-04-20T16:03:23.322Z,11.77
2019-04-20T16:05:58.969Z,11.62
2019-04-20T16:08:38.755Z,11.54
2019-04-20T16:11:11.378Z,11.49
2019-04-20T16:13:50.007Z,11.38
2019-04-20T16:16:19.610Z,11.25
2019-04-20T16:18:51.020Z,11.07
2019-04-20T16:21:29.447Z,10.85
2019-04-20T16:24:01.142Z,10.89
2019-04-20T16:26:37.830Z,10.89
2019-04-20T16:29:08.807Z,10.88
2019-04-20T16:31:40.555Z,10.88
2019-04-20T16:34:14.244Z,10.88
2019-04-20T16:36:46.368Z,10.82
2019-04-20T16:39:18.372Z,10.73
2019-04-20T16:41:50.465Z,10.74
2019-04-20T16:44:23.144Z,10.68
2019-04-20T16:46:56.448Z,10.63
2019-04-20T16:49:27.057Z,10.27
2019-04-20T16:52:00.886Z,10.00
2019-04-20T16:54:32.137Z,9.90
2019-04-20T16:57:04.770Z,9.89
2019-04-20T16:59:46.523Z,9.83
2019-04-20T17:02:14.178Z,9.67
2019-04-20T17:04:45.026Z,9.56
2019-04-20T17:07:20.544Z,9.46
2019-04-20T17:09:55.960Z,9.33
2019-04-20T17:12:27.955Z,9.24
2019-04-20T17:15:01.365Z,9.21
2019-04-20T17:17:35.821Z,9.06
2019-04-20T17:20:11.427Z,8.96
2019-04-20T17:22:50.769Z,9.00
2019-04-20T17:25:27.945Z,8.90
2019-04-20T17:28:17.351Z,8.87
2019-04-20T17:30:59.234Z,8.75
2019-04-20T17:33:50.682Z,8.68
2019-04-20T17:36:18.558Z,8.65
2019-04-20T17:38:51.711Z,8.52
2019-04-20T17:41:43.163Z,8.53
2019-04-20T17:44:09.667Z,8.50
2019-04-20T17:46:44.360Z,8.25
2019-04-20T17:49:14.467Z,8.11
2019-04-20T17:51:57.996Z,8.13
2019-04-20T17:54:25.566Z,8.07
2019-04-20T17:57:00.344Z,7.97
2019-04-20T17:59:39.993Z,7.86
2019-04-20T18:02:51.195Z,7.89
2019-04-20T18:05:46.548Z,7.87
2019-04-20T18:08:15.500Z,7.81
2019-04-20T18:10:41.875Z,7.74
2019-04-20T18:13:07.069Z,7.87
2019-04-20T18:15:48.880Z,7.83
2019-04-20T18:18:39.075Z,7.67
2019-04-20T18:21:03.199Z,7.64
2019-04-20T18:23:39.914Z,7.58
2019-04-20T18:26:28.775Z,7.54
2019-04-20T18:29:03.589Z,7.48
2019-04-20T18:31:17.578Z,7.35
2019-04-20T18:33:50.621Z,7.36
2019-04-20T18:36:30.804Z,7.42
2019-04-20T18:39:02.629Z,7.48
2019-04-20T18:41:38.489Z,7.37
2019-04-20T18:44:04.510Z,7.43
2019-04-20T18:47:00.328Z,7.43
2019-04-20T18:49:24.063Z,7.27
2019-04-20T18:51:39.962Z,7.59
2019-04-20T18:54:22.379Z,7.77
2019-04-20T18:56:56.778Z,7.63
2019-04-20T18:59:31.783Z,7.71
2019-04-20T19:02:12.754Z,7.88
2019-04-20T19:04:39.703Z,7.80
2019-04-20T19:07:11.923Z,7.79
2019-04-20T19:09:45.478Z,7.70
2019-04-20T19:12:16.645Z,7.60
2019-04-20T19:15:28.174Z,7.53
2019-04-20T19:17:58.111Z,7.67
2019-04-20T19:20:26.919Z,7.56
2019-04-20T19:22:58.020Z,7.40
2019-04-20T19:25:36.778Z,7.26
2019-04-20T19:28:07.069Z,7.25
2019-04-20T19:30:46.836Z,7.13
2019-04-20T19:33:30.430Z,7.12
2019-04-20T19:35:53.005Z,7.08
2019-04-20T19:38:25.889Z,7.16
2019-04-20T19:41:00.136Z,7.11
2019-04-20T19:43:33.801Z,7.10
2019-04-20T19:46:44.292Z,7.08
2019-04-20T19:48:48.685Z,7.12
2019-04-20T19:51:28.399Z,7.10
2019-04-20T19:53:59.610Z,7.15
2019-04-20T19:56:31.100Z,7.05
2019-04-20T19:59:05.112Z,7.02
2019-04-20T20:01:22.146Z,7.06
2019-04-20T20:04:02.855Z,7.11
2019-04-20T20:06:42.673Z,6.99
2019-04-20T20:09:09.402Z,6.87
2019-04-20T20:11:42.368Z,6.89
2019-04-20T20:14:12.719Z,6.85
2019-04-20T20:17:06.698Z,6.95
2019-04-20T20:19:37.196Z,6.87
2019-04-20T20:22:07.863Z,6.81
2019-04-20T20:24:27.277Z,6.85
2019-04-20T20:27:04.239Z,6.83
2019-04-20T20:29:38.366Z,6.84
2019-04-20T20:32:17.733Z,6.82
2019-04-20T20:34:44.065Z,6.79
2019-04-20T20:37:18.165Z,6.72
2019-04-20T20:39:59.713Z,6.76
2019-04-20T20:42:29.374Z,6.75
2019-04-20T20:45:07.002Z,6.68
2019-04-20T20:48:00.462Z,6.72
2019-04-20T20:50:21.238Z,6.77
2019-04-20T20:52:49.662Z,6.75
2019-04-20T20:55:24.580Z,6.73
2019-04-20T20:57:53.596Z,6.80
2019-04-20T21:00:24.146Z,6.85
2019-04-20T21:02:53.776Z,6.87
2019-04-20T21:05:19.695Z,6.84
2019-04-20T21:07:51.342Z,6.76
2019-04-20T21:10:30.033Z,6.76
2019-04-20T21:12:58.971Z,6.83
2019-04-20T21:15:28.270Z,6.76
2019-04-20T21:18:20.815Z,6.73
2019-04-20T21:20:52.010Z,6.72
2019-04-20T21:23:20.110Z,6.62
2019-04-20T21:25:43.508Z,6.64
2019-04-20T21:28:10.856Z,6.58
2019-04-20T21:30:45.514Z,6.61
2019-04-20T21:33:15.017Z,6.59
2019-04-20T21:35:48.890Z,6.53
2019-04-20T21:38:19.033Z,6.48
2019-04-20T21:41:02.118Z,6.50
2019-04-20T21:43:29.914Z,6.52
2019-04-20T21:46:01.247Z,6.51
2019-04-20T21:48:49.174Z,6.58
2019-04-20T21:51:16.602Z,6.49
2019-04-20T21:53:35.876Z,6.53
2019-04-20T21:56:08.084Z,6.46
2019-04-20T21:58:44.385Z,6.48
2019-04-20T22:01:22.194Z,6.49
2019-04-20T22:03:45.069Z,6.71
2019-04-20T22:06:16.286Z,6.73
2019-04-20T22:08:54.578Z,6.74
2019-04-20T22:11:23.961Z,6.69
2019-04-20T22:13:54.841Z,6.59
2019-04-20T22:16:34.332Z,6.54
2019-04-20T22:19:14.598Z,6.62
2019-04-20T22:21:48.272Z,6.48
2019-04-20T22:24:13.593Z,6.38
2019-04-20T22:26:50.260Z,6.32
2019-04-20T22:29:08.047Z,6.30
2019-04-20T22:31:40.232Z,6.33
2019-04-20T22:34:15.359Z,6.35
2019-04-20T22:36:48.152Z,6.21
2019-04-20T22:39:18.709Z,6.17
2019-04-20T22:41:56.344Z,6.35
2019-04-20T22:44:26.600Z,6.41
2019-04-20T22:46:56.308Z,6.51
2019-04-20T22:49:47.254Z,6.58
2019-04-20T22:52:18.505Z,6.68
2019-04-20T22:54:48.955Z,6.81
2019-04-20T22:57:21.585Z,6.62
2019-04-20T22:59:50.512Z,6.52
2019-04-20T23:02:13.544Z,6.39
2019-04-20T23:04:48.700Z,6.35
2019-04-20T23:07:20.850Z,6.23
2019-04-20T23:09:54.976Z,6.18
2019-04-20T23:12:26.926Z,6.07
2019-04-20T23:14:56.588Z,5.99
2019-04-20T23:17:36.548Z,5.98
2019-04-20T23:20:02.910Z,6.01
2019-04-20T23:22:36.827Z,5.93
2019-04-20T23:25:05.385Z,5.91
2019-04-20T23:27:37.280Z,5.91
2019-04-20T23:30:20.240Z,5.85
2019-04-20T23:32:44.192Z,5.83
2019-04-20T23:35:18.500Z,5.67
2019-04-20T23:37:48.431Z,5.68
2019-04-20T23:40:19.633Z,5.84
2019-04-20T23:42:55.812Z,5.74
2019-04-20T23:45:42.726Z,5.76
2019-04-20T23:48:18.365Z,5.76
2019-04-20T23:51:05.029Z,5.69
2019-04-20T23:53:39.208Z,5.68
2019-04-20T23:55:54.398Z,5.71
2019-04-20T23:58:26.385Z,5.77
